createdAt,value
2018-03-11T00:00:28.775Z,99.90
2018-03-11T00:03:00.231Z,99.90
2018-03-11T00:05:29.142Z,99.90
2018-03-11T00:07:58.319Z,99.90
2018-03-11T00:10:26.992Z,99.90
2018-03-11T00:12:55.618Z,99.90
2018-03-11T00:15:25.805Z,99.90
2018-03-11T00:17:53.996Z,99.90
2018-03-11T00:20:22.533Z,99.90
2018-03-11T00:22:50.240Z,99.90
2018-03-11T00:25:20.880Z,99.90
2018-03-11T00:27:51.289Z,99.90
2018-03-11T00:30:19.149Z,99.90
2018-03-11T00:32:47.437Z,99.90
2018-03-11T00:35:15.883Z,99.90
2018-03-11T00:37:44.441Z,99.90
2018-03-11T00:40:12.337Z,99.90
2018-03-11T00:42:42.089Z,99.90
2018-03-11T00:45:09.887Z,99.90
2018-03-11T00:47:38.319Z,99.90
2018-03-11T00:50:06.811Z,99.90
2018-03-11T00:52:36.565Z,99.90
2018-03-11T00:55:05.169Z,99.90
2018-03-11T00:57:33.171Z,99.90
2018-03-11T01:00:01.441Z,99.90
2018-03-11T01:02:30.662Z,99.90
2018-03-11T01:04:58.336Z,99.90
2018-03-11T01:07:27.188Z,99.90
2018-03-11T01:09:55.164Z,99.90
2018-03-11T01:12:24.588Z,99.90
2018-03-11T01:14:52.881Z,99.90
2018-03-11T01:17:22.265Z,99.90
2018-03-11T01:19:49.926Z,99.90
2018-03-11T01:22:17.580Z,99.90
2018-03-11T01:24:45.373Z,99.90
2018-03-11T01:27:14.368Z,99.90
2018-03-11T01:29:42.004Z,99.90
2018-03-11T01:32:09.701Z,99.90
2018-03-11T01:34:39.056Z,99.90
2018-03-11T01:37:06.702Z,99.90
2018-03-11T01:39:34.245Z,99.90
2018-03-11T01:42:01.844Z,99.90
2018-03-11T01:44:29.409Z,99.90
2018-03-11T01:46:56.987Z,99.90
2018-03-11T01:49:24.575Z,99.90
2018-03-11T01:51:52.155Z,99.90
2018-03-11T01:54:19.740Z,99.90
2018-03-11T01:56:47.340Z,99.90
2018-03-11T01:59:14.920Z,99.90
2018-03-11T02:01:42.505Z,99.90
2018-03-11T02:04:10.115Z,99.90
2018-03-11T02:06:37.714Z,99.90
2018-03-11T02:09:05.288Z,99.90
2018-03-11T02:11:32.858Z,99.90
2018-03-11T02:14:00.445Z,99.90
2018-03-11T02:16:28.028Z,99.90
2018-03-11T02:18:56.362Z,99.90
2018-03-11T02:21:23.944Z,99.90
2018-03-11T02:23:51.508Z,99.90
2018-03-11T02:26:19.133Z,99.90
2018-03-11T02:28:46.792Z,99.90
2018-03-11T02:31:14.553Z,99.90
2018-03-11T02:33:42.216Z,99.90
2018-03-11T02:36:10.146Z,99.90
2018-03-11T02:38:37.977Z,99.90
2018-03-11T02:41:05.635Z,99.90
2018-03-11T02:43:33.250Z,99.90
2018-03-11T02:46:00.979Z,99.90
2018-03-11T02:48:29.437Z,99.90
2018-03-11T02:50:59.706Z,99.90
2018-03-11T02:53:27.640Z,99.90
2018-03-11T02:55:56.321Z,99.90
2018-03-11T02:58:26.097Z,99.90
2018-03-11T03:00:54.685Z,99.90
2018-03-11T03:03:23.252Z,99.90
2018-03-11T03:05:50.870Z,99.90
2018-03-11T03:08:19.322Z,99.90
2018-03-11T03:10:47.063Z,99.90
2018-03-11T03:13:14.808Z,99.90
2018-03-11T03:15:49.285Z,99.90
2018-03-11T03:18:20.367Z,99.90
2018-03-11T03:20:49.046Z,99.90
2018-03-11T03:23:17.619Z,99.90
2018-03-11T03:25:45.783Z,99.90
2018-03-11T03:28:14.212Z,99.90
2018-03-11T03:30:41.963Z,99.90
2018-03-11T03:33:09.536Z,99.90
2018-03-11T03:35:37.117Z,99.90
2018-03-11T03:38:04.755Z,99.90
2018-03-11T03:40:33.080Z,99.90
2018-03-11T03:43:00.708Z,99.90
2018-03-11T03:45:29.192Z,99.90
2018-03-11T03:47:56.825Z,99.90
2018-03-11T03:50:24.472Z,99.90
2018-03-11T03:52:52.935Z,99.90
2018-03-11T03:55:20.562Z,99.90
2018-03-11T03:57:49.221Z,99.90
2018-03-11T04:00:18.422Z,99.90
2018-03-11T04:02:47.329Z,99.90
2018-03-11T04:05:18.396Z,99.90
2018-03-11T04:07:46.815Z,99.90
2018-03-11T04:10:14.386Z,99.90
2018-03-11T04:12:41.978Z,99.90
2018-03-11T04:15:09.594Z,99.90
2018-03-11T04:17:38.068Z,99.90
2018-03-11T04:20:05.727Z,99.90
2018-03-11T04:22:34.087Z,99.90
2018-03-11T04:25:01.659Z,99.90
2018-03-11T04:27:31.435Z,99.90
2018-03-11T04:30:00.010Z,99.90
2018-03-11T04:32:27.942Z,99.90
2018-03-11T04:34:55.609Z,99.90
2018-03-11T04:37:23.431Z,99.90
2018-03-11T04:39:51.248Z,99.90
2018-03-11T04:42:18.935Z,99.90
2018-03-11T04:44:46.722Z,99.90
2018-03-11T04:47:14.361Z,99.90
2018-03-11T04:49:42.223Z,99.90
2018-03-11T04:52:09.952Z,99.90
2018-03-11T04:54:37.825Z,99.90
2018-03-11T04:57:05.568Z,99.90
2018-03-11T04:59:33.836Z,99.90
2018-03-11T05:02:02.227Z,99.90
2018-03-11T05:04:30.776Z,99.90
2018-03-11T05:06:58.400Z,99.90
2018-03-11T05:09:25.971Z,99.90
2018-03-11T05:11:53.544Z,99.90
2018-03-11T05:14:21.140Z,99.90
2018-03-11T05:16:48.722Z,99.90
2018-03-11T05:19:17.112Z,99.90
2018-03-11T05:21:44.700Z,99.90
2018-03-11T05:24:12.278Z,99.90
2018-03-11T05:26:41.393Z,99.90
2018-03-11T05:29:09.012Z,99.90
2018-03-11T05:31:36.592Z,99.90
2018-03-11T05:34:04.203Z,99.90
2018-03-11T05:36:32.599Z,99.90
2018-03-11T05:39:00.200Z,99.90
2018-03-11T05:41:27.809Z,99.90
2018-03-11T05:43:55.435Z,99.90
2018-03-11T05:46:23.046Z,99.90
2018-03-11T05:48:50.711Z,99.90
2018-03-11T05:51:18.484Z,99.90
2018-03-11T05:53:46.927Z,99.90
2018-03-11T05:56:14.593Z,99.90
2018-03-11T05:58:42.323Z,99.90
2018-03-11T06:01:09.998Z,99.90
2018-03-11T06:03:38.524Z,99.90
2018-03-11T06:06:07.151Z,99.90
2018-03-11T06:08:34.797Z,99.90
2018-03-11T06:11:02.382Z,99.90
2018-03-11T06:13:29.948Z,99.90
2018-03-11T06:15:57.533Z,99.90
2018-03-11T06:18:25.086Z,99.90
2018-03-11T06:20:53.414Z,99.90
2018-03-11T06:23:22.969Z,99.90
2018-03-11T06:25:50.548Z,99.90
2018-03-11T06:28:18.121Z,99.90
2018-03-11T06:30:45.732Z,99.90
2018-03-11T06:33:14.078Z,99.90
2018-03-11T06:35:41.653Z,99.90
2018-03-11T06:38:09.243Z,99.90
2018-03-11T06:40:37.575Z,99.90
2018-03-11T06:43:05.198Z,99.90
2018-03-11T06:45:32.779Z,99.90
2018-03-11T06:48:00.352Z,99.90
2018-03-11T06:50:27.928Z,99.90
2018-03-11T06:52:56.542Z,99.90
2018-03-11T06:55:24.886Z,99.90
2018-03-11T06:57:52.459Z,99.90
2018-03-11T07:00:20.063Z,99.90
2018-03-11T07:02:47.634Z,99.90
2018-03-11T07:05:15.235Z,99.90
2018-03-11T07:07:42.828Z,99.90
2018-03-11T07:10:11.187Z,99.90
2018-03-11T07:12:38.840Z,99.90
2018-03-11T07:15:06.507Z,99.90
2018-03-11T07:17:34.105Z,99.90
2018-03-11T07:20:01.677Z,99.90
2018-03-11T07:22:29.259Z,99.90
2018-03-11T07:24:56.823Z,99.90
2018-03-11T07:27:24.412Z,99.90
2018-03-11T07:29:51.994Z,99.90
2018-03-11T07:32:20.410Z,99.90
2018-03-11T07:34:48.004Z,99.90
2018-03-11T07:37:16.385Z,99.90
2018-03-11T07:39:43.942Z,99.90
2018-03-11T07:42:11.528Z,99.90
2018-03-11T07:44:39.871Z,99.90
2018-03-11T07:47:07.442Z,99.90
2018-03-11T07:49:35.027Z,99.90
2018-03-11T07:52:03.404Z,99.90
2018-03-11T07:54:31.848Z,99.90
2018-03-11T07:56:59.421Z,99.90
2018-03-11T07:59:27.017Z,99.90
2018-03-11T08:01:54.590Z,99.90
2018-03-11T08:04:22.316Z,99.90
2018-03-11T08:06:49.887Z,99.90
2018-03-11T08:09:18.218Z,99.90
2018-03-11T08:11:46.831Z,99.90
2018-03-11T08:14:16.400Z,99.90
2018-03-11T08:16:45.004Z,99.90
2018-03-11T08:19:12.587Z,99.90
2018-03-11T08:21:40.172Z,99.90
2018-03-11T08:24:07.738Z,99.90
2018-03-11T08:26:35.305Z,99.90
2018-03-11T08:29:03.168Z,99.90
2018-03-11T08:31:32.146Z,99.90
2018-03-11T08:33:59.733Z,99.90
2018-03-11T08:36:28.376Z,99.90
2018-03-11T08:38:58.275Z,99.90
2018-03-11T08:44:22.303Z,99.90
2018-03-11T08:46:50.663Z,99.50
2018-03-11T08:49:19.006Z,98.90
2018-03-11T08:51:47.567Z,98.90
2018-03-11T08:54:15.196Z,98.60
2018-03-11T08:56:43.539Z,97.20
2018-03-11T08:59:12.118Z,97.20
2018-03-11T09:01:40.721Z,97.00
2018-03-11T09:04:08.373Z,96.50
2018-03-11T09:06:35.944Z,96.00
2018-03-11T09:09:03.516Z,95.70
2018-03-11T09:11:32.747Z,95.80
2018-03-11T09:14:01.894Z,95.70
2018-03-11T09:16:32.050Z,95.80
2018-03-11T09:19:00.591Z,96.10
2018-03-11T09:21:33.150Z,96.30
2018-03-11T09:26:38.498Z,96.30
2018-03-11T09:29:06.082Z,96.30
2018-03-11T09:31:33.650Z,95.70
2018-03-11T09:34:01.239Z,94.90
2018-03-11T09:36:29.703Z,93.10
2018-03-11T09:38:57.288Z,93.10
2018-03-11T09:41:24.931Z,92.50
2018-03-11T09:43:53.269Z,89.70
2018-03-11T09:46:20.866Z,89.70
2018-03-11T09:48:49.225Z,87.60
2018-03-11T09:51:16.806Z,87.50
2018-03-11T09:53:46.180Z,85.20
2018-03-11T09:56:14.523Z,85.10
2018-03-11T09:58:42.111Z,84.90
2018-03-11T10:01:09.666Z,84.90
2018-03-11T10:03:37.251Z,83.10
2018-03-11T10:06:04.829Z,83.30
2018-03-11T10:08:33.164Z,80.70
2018-03-11T10:11:00.746Z,80.60
2018-03-11T10:13:28.354Z,79.70
2018-03-11T10:15:56.711Z,78.50
2018-03-11T10:18:25.078Z,77.50
2018-03-11T10:20:53.437Z,76.90
2018-03-11T10:23:21.010Z,76.90
2018-03-11T10:25:48.603Z,77.70
2018-03-11T10:28:16.191Z,80.30
2018-03-11T10:30:43.774Z,84.60
2018-03-11T10:33:12.146Z,87.30
2018-03-11T10:35:39.735Z,87.30
2018-03-11T10:38:08.068Z,88.70
2018-03-11T10:40:35.678Z,88.60
2018-03-11T10:43:04.035Z,88.60
2018-03-11T10:45:31.646Z,88.60
2018-03-11T10:47:59.237Z,86.90
2018-03-11T10:50:26.813Z,86.40
2018-03-11T10:52:54.396Z,84.70
2018-03-11T10:55:22.747Z,84.50
2018-03-11T10:57:50.322Z,84.50
2018-03-11T11:00:17.899Z,83.40
2018-03-11T11:02:46.228Z,82.00
2018-03-11T11:05:13.806Z,82.00
2018-03-11T11:07:41.387Z,81.30
2018-03-11T11:10:08.974Z,82.40
2018-03-11T11:12:36.580Z,81.50
2018-03-11T11:15:04.156Z,82.70
2018-03-11T11:17:31.749Z,81.90
2018-03-11T11:19:59.320Z,79.80
2018-03-11T11:22:26.952Z,80.50
2018-03-11T11:24:55.326Z,80.30
2018-03-11T11:27:23.664Z,80.80
2018-03-11T11:29:51.269Z,80.80
2018-03-11T11:32:19.605Z,81.20
2018-03-11T11:34:47.195Z,81.20
2018-03-11T11:37:14.766Z,82.60
2018-03-11T11:39:43.114Z,84.00
2018-03-11T11:42:10.677Z,83.90
2018-03-11T11:44:38.292Z,84.90
2018-03-11T11:47:05.896Z,84.40
2018-03-11T11:49:33.464Z,85.10
2018-03-11T11:52:01.055Z,84.60
2018-03-11T11:54:29.376Z,83.40
2018-03-11T11:56:56.960Z,83.40
2018-03-11T11:59:24.532Z,80.20
2018-03-11T12:01:52.080Z,80.10
2018-03-11T12:04:19.658Z,78.50
2018-03-11T12:06:47.218Z,76.50
2018-03-11T12:09:15.567Z,71.70
2018-03-11T12:11:43.146Z,71.70
2018-03-11T12:14:10.734Z,71.70
2018-03-11T12:16:40.064Z,69.00
2018-03-11T12:19:07.674Z,69.00
2018-03-11T12:21:35.235Z,67.50
2018-03-11T12:24:02.874Z,68.60
2018-03-11T12:26:30.455Z,67.90
2018-03-11T12:28:58.037Z,66.90
2018-03-11T12:31:25.614Z,65.80
2018-03-11T12:33:53.198Z,66.00
2018-03-11T12:36:20.829Z,65.40
2018-03-11T12:38:48.420Z,64.40
2018-03-11T12:41:15.995Z,64.70
2018-03-11T12:43:43.588Z,63.80
2018-03-11T12:46:11.924Z,62.40
2018-03-11T12:48:39.516Z,62.30
2018-03-11T12:51:07.083Z,62.60
2018-03-11T12:53:35.422Z,60.50
2018-03-11T12:56:02.995Z,60.40
2018-03-11T12:58:36.192Z,60.00
2018-03-11T13:01:03.735Z,59.70
2018-03-11T13:03:31.230Z,60.60
2018-03-11T13:05:59.497Z,59.80
2018-03-11T13:08:27.056Z,59.80
2018-03-11T13:10:54.583Z,60.00
2018-03-11T13:13:22.099Z,60.40
2018-03-11T13:15:49.602Z,59.60
2018-03-11T13:18:17.118Z,59.20
2018-03-11T13:20:56.524Z,59.40
2018-03-11T13:23:24.024Z,59.50
2018-03-11T13:25:51.550Z,58.80
2018-03-11T13:28:30.798Z,59.40
2018-03-11T13:30:59.074Z,58.80
2018-03-11T13:33:38.439Z,58.80
2018-03-11T13:36:05.946Z,59.80
2018-03-11T13:38:45.198Z,58.90
2018-03-11T13:41:13.577Z,59.80
2018-03-11T13:43:41.165Z,59.80
2018-03-11T13:46:20.779Z,62.00
2018-03-11T13:48:49.060Z,63.70
2018-03-11T13:51:29.128Z,65.40
2018-03-11T13:53:57.180Z,65.40
2018-03-11T13:56:25.486Z,65.50
2018-03-11T13:58:52.982Z,65.50
2018-03-11T14:01:20.481Z,66.20
2018-03-11T14:03:48.860Z,67.70
2018-03-11T14:06:16.437Z,67.70
2018-03-11T14:08:44.049Z,68.20
2018-03-11T14:11:11.609Z,69.40
2018-03-11T14:13:39.170Z,70.20
2018-03-11T14:16:06.760Z,71.70
2018-03-11T14:18:35.120Z,74.00
2018-03-11T14:21:03.456Z,74.80
2018-03-11T14:23:31.031Z,74.80
2018-03-11T14:25:58.608Z,74.40
2018-03-11T14:28:26.213Z,75.00
2018-03-11T14:30:53.803Z,75.50
2018-03-11T14:33:21.367Z,75.80
2018-03-11T14:35:48.964Z,76.50
2018-03-11T14:38:17.291Z,80.30
2018-03-11T14:40:44.882Z,80.20
2018-03-11T14:43:12.444Z,80.40
2018-03-11T14:45:40.014Z,80.30
2018-03-11T14:48:07.582Z,80.80
2018-03-11T14:50:35.912Z,82.20
2018-03-11T14:53:03.512Z,82.00
2018-03-11T14:55:31.125Z,83.40
2018-03-11T14:57:58.687Z,83.50
2018-03-11T15:00:26.284Z,84.60
2018-03-11T15:02:53.871Z,85.70
2018-03-11T15:05:22.241Z,84.30
2018-03-11T15:07:50.999Z,84.40
2018-03-11T15:12:52.576Z,84.50
2018-03-11T15:15:20.162Z,84.90
2018-03-11T15:17:48.518Z,87.00
2018-03-11T15:20:16.103Z,86.90
2018-03-11T15:22:44.440Z,87.60
2018-03-11T15:25:12.807Z,87.00
2018-03-11T15:27:40.380Z,86.90
2018-03-11T15:30:08.040Z,87.20
2018-03-11T15:32:35.712Z,87.70
2018-03-11T15:35:03.314Z,89.30
2018-03-11T15:37:30.900Z,90.20
2018-03-11T15:39:58.514Z,90.10
2018-03-11T15:42:26.874Z,92.50
2018-03-11T15:44:54.495Z,92.20
2018-03-11T15:47:22.089Z,92.00
2018-03-11T15:49:50.426Z,93.50
2018-03-11T15:52:18.020Z,93.50
2018-03-11T15:54:45.613Z,93.50
2018-03-11T15:57:13.955Z,94.10
2018-03-11T15:59:41.516Z,94.10
2018-03-11T16:02:09.108Z,94.50
2018-03-11T16:04:37.472Z,96.40
2018-03-11T16:07:05.039Z,96.40
2018-03-11T16:09:32.627Z,96.20
2018-03-11T16:12:00.319Z,96.40
2018-03-11T16:14:28.108Z,96.90
2018-03-11T16:16:55.723Z,97.10
2018-03-11T16:19:23.295Z,96.90
2018-03-11T16:21:50.891Z,97.10
2018-03-11T16:24:28.382Z,97.70
2018-03-11T16:27:09.888Z,98.20
2018-03-11T16:29:37.469Z,98.10
2018-03-11T16:35:17.473Z,99.90
2018-03-11T16:37:45.080Z,99.90
2018-03-11T16:43:13.554Z,99.90
2018-03-11T16:45:41.119Z,99.90
2018-03-11T16:48:11.134Z,99.90
2018-03-11T16:57:07.695Z,99.90
2018-03-11T17:02:42.633Z,99.90
2018-03-11T17:05:10.650Z,99.90
2018-03-11T20:41:48.551Z,99.90
2018-03-11T20:44:16.138Z,99.90
2018-03-11T20:46:43.887Z,99.90
2018-03-11T20:49:12.304Z,99.90
2018-03-11T20:51:40.652Z,99.90
2018-03-11T20:54:08.235Z,99.90
2018-03-11T20:56:35.828Z,99.90
2018-03-11T20:59:03.442Z,99.90
2018-03-11T21:01:31.003Z,99.90
2018-03-11T21:03:58.568Z,99.90
2018-03-11T21:06:26.324Z,99.90
2018-03-11T21:08:54.874Z,99.90
2018-03-11T21:11:22.542Z,99.90
2018-03-11T21:13:50.814Z,99.90
2018-03-11T21:16:18.425Z,99.90
2018-03-11T21:18:46.783Z,99.90
2018-03-11T21:21:14.359Z,99.90
2018-03-11T21:23:42.717Z,99.90
2018-03-11T21:26:10.275Z,99.90
2018-03-11T21:28:37.872Z,99.90
2018-03-11T21:31:06.246Z,99.90
2018-03-11T21:33:34.613Z,99.90
2018-03-11T21:36:02.226Z,99.90
2018-03-11T21:38:30.244Z,99.90
2018-03-11T21:40:58.675Z,99.90
2018-03-11T21:43:26.865Z,99.90
2018-03-11T21:45:54.498Z,99.90
2018-03-11T21:48:22.162Z,99.90
2018-03-11T21:50:49.750Z,99.90
2018-03-11T21:53:17.353Z,99.90
2018-03-11T21:55:45.750Z,99.90
2018-03-11T21:58:13.421Z,99.90
2018-03-11T22:00:41.136Z,99.90
2018-03-11T22:03:08.740Z,99.90
2018-03-11T22:05:36.319Z,99.90
2018-03-11T22:08:03.922Z,99.90
2018-03-11T22:10:31.492Z,99.90
2018-03-11T22:12:59.083Z,99.90
2018-03-11T22:15:27.603Z,99.90
2018-03-11T22:17:55.322Z,99.90
2018-03-11T22:20:22.930Z,99.90
2018-03-11T22:22:54.073Z,99.90
2018-03-11T22:25:21.723Z,99.90
2018-03-11T22:27:49.300Z,99.90
2018-03-11T22:30:16.888Z,99.90
2018-03-11T22:32:45.264Z,99.90
2018-03-11T22:35:13.595Z,99.90
2018-03-11T22:37:41.203Z,99.90
2018-03-11T22:40:09.539Z,99.90
2018-03-11T22:42:37.123Z,99.90
2018-03-11T22:45:04.731Z,99.90
2018-03-11T22:47:32.335Z,99.90
2018-03-11T22:49:59.923Z,99.90
2018-03-11T22:52:28.256Z,99.90
2018-03-11T22:54:55.860Z,99.90
2018-03-11T22:57:24.229Z,99.90
2018-03-11T22:59:51.811Z,99.90
2018-03-11T23:02:19.418Z,99.90
2018-03-11T23:04:46.986Z,99.90
2018-03-11T23:07:14.573Z,99.90
2018-03-11T23:09:42.163Z,99.90
2018-03-11T23:12:09.772Z,99.90
2018-03-11T23:14:37.356Z,99.90
2018-03-11T23:17:04.996Z,99.90
2018-03-11T23:19:33.526Z,99.90
2018-03-11T23:22:01.139Z,99.90
2018-03-11T23:24:28.739Z,99.90
2018-03-11T23:26:57.076Z,99.90
2018-03-11T23:29:24.960Z,99.90
2018-03-11T23:31:52.577Z,99.90
2018-03-11T23:34:20.197Z,99.90
2018-03-11T23:36:48.557Z,99.90
2018-03-11T23:39:16.244Z,99.90
2018-03-11T23:41:43.852Z,99.90
2018-03-11T23:44:11.414Z,99.90
2018-03-11T23:46:39.016Z,99.90
2018-03-11T23:49:07.361Z,99.90
2018-03-11T23:51:34.963Z,99.90
2018-03-11T23:54:03.311Z,99.90
2018-03-11T23:56:30.914Z,99.90
2018-03-11T23:58:58.586Z,99.90
